Cruise inventory

RRS Charles Darwin CD44

Cruise summary report

Cruise Info. 
Ship name (ship code)RRS Charles Darwin (74AB)
Cruise identifierCD44
Cruise period1989-11-24 — 1989-12-02
StatusCompleted
Port of departureTroon, United Kingdom
Port of returnCampbeltown, United Kingdom
PurposeResearch
Objectives1. To collect large volume water samples and CTD profiles at standard positions between the Sound of Mull and the shelf edge of the Hebrides.
2. To work the CTD stations of the Anton Dohrn Seamount (Ellett Line) section between the shelf edge and Rockall.
3. To work a CTD section west of Rockall to Porcupine Bank.
4. To work CTD sections across the shelf edge west of Ireland as time and weather permit.
Chief scientistAnton Edwards (Dunstaffnage Marine Laboratory)
Cruise reportRRS Charles Darwin CD44 cruise report cd44.pdf — access key 'C' (0.18 MB) 
Ocean/sea areas 
GeneralNorth East Atlantic Ocean (limit 40W)
SpecificNE and NW Atlantic Ocean
Track chartsRRS Charles Darwin CD44 cruise track — trk3588.html
Measurements 
Physical oceanography 
CTD stationsQuantity: number of stations = 81
Chemical oceanography 
RadioactivityQuantity: number of samples = 28
Data held at BODC 
Series/Profiles 
80  CTD/STD cast
Vertical spatial coordinates
Salinity of the water column
Temperature of the water column
Vertical spatial coordinates
Salinity of the water column
Temperature of the water column

BODC idDate/TimeLocationDoc.
3173581989-12-01 08:14 55° 46' 0" N  9° 37' 59" W  View metadata report for BODC series reference number 317358
3173711989-12-01 10:23 55° 46' 5" N  9° 26' 53" W  View metadata report for BODC series reference number 317371
3173831989-12-01 12:00 55° 46' 5" N  9° 16' 0" W  View metadata report for BODC series reference number 317383
3173951989-12-01 14:23 55° 46' 0" N  8° 39' 47" W  View metadata report for BODC series reference number 317395
3174021989-12-01 16:46 55° 45' 54" N  8° 0' 0" W  View metadata report for BODC series reference number 317402
3174141989-12-01 17:59 55° 46' 0" N  7° 41' 23" W  View metadata report for BODC series reference number 317414
3174261989-12-01 18:58 55° 46' 0" N  7° 28' 59" W  View metadata report for BODC series reference number 317426
3174381989-12-01 19:52 55° 46' 0" N  7° 16' 30" W  View metadata report for BODC series reference number 317438
3174511989-12-01 20:49 55° 46' 0" N  7° 3' 47" W  View metadata report for BODC series reference number 317451
3174631989-12-01 21:33 55° 45' 54" N  6° 55' 5" W  View metadata report for BODC series reference number 317463
3174751989-12-01 22:27 55° 45' 54" N  6° 46' 23" W  View metadata report for BODC series reference number 317475
3174871989-12-01 23:09 55° 45' 54" N  6° 37' 41" W  View metadata report for BODC series reference number 317487
3174991989-12-02 00:02 55° 46' 0" N  6° 30' 0" W  View metadata report for BODC series reference number 317499
3173091989-11-30 09:59 53° 25' 0" N  11° 49' 54" W  View metadata report for BODC series reference number 317309
3173101989-11-30 11:39 53° 25' 0" N  11° 29' 53" W  View metadata report for BODC series reference number 317310
3173221989-11-30 13:11 53° 25' 5" N  11° 10' 23" W  View metadata report for BODC series reference number 317322
3173341989-12-01 02:36 55° 46' 5" N  10° 4' 48" W  View metadata report for BODC series reference number 317334
3173461989-12-01 05:33 55° 46' 0" N  9° 49' 54" W  View metadata report for BODC series reference number 317346
3167851989-11-25 20:18 56° 50' 6" N  8° 19' 59" W  View metadata report for BODC series reference number 316785
3168041989-11-25 23:08 56° 57' 6" N  8° 47' 6" W  View metadata report for BODC series reference number 316804
3168161989-11-26 00:15 57° 0' 0" N  9° 0' 24" W  View metadata report for BODC series reference number 316816
3168281989-11-26 01:58 57° 2' 59" N  9° 12' 47" W  View metadata report for BODC series reference number 316828
3168411989-11-26 03:28 57° 6' 0" N  9° 24' 47" W  View metadata report for BODC series reference number 316841
3168531989-11-26 05:38 57° 9' 6" N  9° 41' 59" W  View metadata report for BODC series reference number 316853
3168651989-11-26 08:32 57° 14' 5" N  10° 3' 17" W  View metadata report for BODC series reference number 316865
3168771989-11-26 11:09 57° 17' 59" N  10° 23' 5" W  View metadata report for BODC series reference number 316877
3168891989-11-26 13:59 57° 22' 0" N  10° 40' 0" W  View metadata report for BODC series reference number 316889
3168901989-11-26 16:16 57° 23' 59" N  10° 51' 35" W  View metadata report for BODC series reference number 316890
3169081989-11-26 17:51 57° 27' 0" N  11° 4' 59" W  View metadata report for BODC series reference number 316908
3169211989-11-26 19:17 57° 28' 0" N  11° 18' 53" W  View metadata report for BODC series reference number 316921
3169331989-11-26 20:49 57° 28' 59" N  11° 31' 59" W  View metadata report for BODC series reference number 316933
3169451989-11-26 23:27 57° 29' 30" N  11° 50' 53" W  View metadata report for BODC series reference number 316945
3169571989-11-27 02:30 57° 30' 29" N  12° 14' 53" W  View metadata report for BODC series reference number 316957
3169691989-11-27 05:31 57° 31' 59" N  12° 37' 54" W  View metadata report for BODC series reference number 316969
3169701989-11-27 07:24 57° 32' 30" N  12° 52' 11" W  View metadata report for BODC series reference number 316970
3169821989-11-27 08:50 57° 32' 59" N  13° 0' 18" W  View metadata report for BODC series reference number 316982
3169941989-11-27 10:20 57° 34' 0" N  13° 19' 59" W  View metadata report for BODC series reference number 316994
3170081989-11-27 11:49 57° 34' 54" N  13° 38' 5" W  View metadata report for BODC series reference number 317008
3170211989-11-27 13:31 57° 30' 0" N  14° 0' 0" W  View metadata report for BODC series reference number 317021
3170331989-11-27 15:32 57° 27' 29" N  14° 30' 0" W  View metadata report for BODC series reference number 317033
3170451989-11-27 17:41 57° 25' 0" N  14° 59' 48" W  View metadata report for BODC series reference number 317045
3170571989-11-27 19:57 57° 22' 23" N  15° 29' 48" W  View metadata report for BODC series reference number 317057
3170691989-11-27 22:28 57° 19' 59" N  16° 0' 6" W  View metadata report for BODC series reference number 317069
3170701989-11-28 01:16 57° 3' 47" N  15° 49' 59" W  View metadata report for BODC series reference number 317070
3170821989-11-28 04:03 56° 47' 59" N  15° 39' 0" W  View metadata report for BODC series reference number 317082
3170941989-11-28 06:25 56° 31' 59" N  15° 28' 29" W  View metadata report for BODC series reference number 317094
3171011989-11-28 08:37 56° 16' 5" N  15° 17' 53" W  View metadata report for BODC series reference number 317101
3171131989-11-28 10:46 56° 0' 0" N  15° 7' 30" W  View metadata report for BODC series reference number 317113
3171251989-11-28 12:20 55° 49' 59" N  15° 0' 0" W  View metadata report for BODC series reference number 317125
3171371989-11-28 14:03 55° 41' 17" N  14° 55' 30" W  View metadata report for BODC series reference number 317137
3171491989-11-28 16:15 55° 32' 35" N  14° 49' 54" W  View metadata report for BODC series reference number 317149
3171501989-11-28 19:58 55° 15' 0" N  14° 39' 6" W  View metadata report for BODC series reference number 317150
3171621989-11-29 00:48 54° 57' 36" N  14° 28' 5" W  View metadata report for BODC series reference number 317162
3171741989-11-29 05:28 54° 40' 5" N  14° 16' 5" W  View metadata report for BODC series reference number 317174
3171861989-11-29 09:58 54° 22' 41" N  14° 5' 53" W  View metadata report for BODC series reference number 317186
3171981989-11-29 15:03 54° 4' 59" N  13° 55' 18" W  View metadata report for BODC series reference number 317198
3172051989-11-29 17:41 54° 0' 0" N  13° 51' 47" W  View metadata report for BODC series reference number 317205
3172171989-11-29 19:49 53° 54' 29" N  13° 48' 24" W  View metadata report for BODC series reference number 317217
3172291989-11-29 21:56 53° 48' 6" N  13° 43' 48" W  View metadata report for BODC series reference number 317229
3172301989-11-29 23:40 53° 38' 59" N  13° 38' 48" W  View metadata report for BODC series reference number 317230
3172421989-11-30 01:44 53° 25' 0" N  13° 30' 0" W  View metadata report for BODC series reference number 317242
3172541989-11-30 03:24 53° 25' 0" N  13° 9' 47" W  View metadata report for BODC series reference number 317254
3172661989-11-30 05:04 53° 25' 0" N  12° 49' 59" W  View metadata report for BODC series reference number 317266
3172781989-11-30 06:42 53° 25' 0" N  12° 30' 0" W  View metadata report for BODC series reference number 317278
3172911989-11-30 08:19 53° 25' 0" N  12° 10' 0" W  View metadata report for BODC series reference number 317291
3167241989-11-25 14:47 56° 43' 47" N  7° 30' 0" W  View metadata report for BODC series reference number 316724
3167361989-11-25 15:57 56° 43' 59" N  7° 40' 0" W  View metadata report for BODC series reference number 316736
3167481989-11-25 17:13 56° 45' 24" N  7° 49' 54" W  View metadata report for BODC series reference number 316748
3167611989-11-25 18:09 56° 46' 59" N  8° 0' 0" W  View metadata report for BODC series reference number 316761
3167731989-11-25 19:23 56° 48' 29" N  8° 10' 5" W  View metadata report for BODC series reference number 316773
3166191989-11-24 14:28 54° 57' 0" N  5° 30' 0" W  View metadata report for BODC series reference number 316619
3166201989-11-25 02:42 56° 40' 0" N  6° 7' 59" W  View metadata report for BODC series reference number 316620
3166321989-11-25 04:56 56° 40' 59" N  6° 16' 59" W  View metadata report for BODC series reference number 316632
3166441989-11-25 06:01 56° 42' 29" N  6° 22' 0" W  View metadata report for BODC series reference number 316644
3166561989-11-25 06:46 56° 43' 59" N  6° 27' 0" W  View metadata report for BODC series reference number 316656
3166681989-11-25 08:09 56° 43' 59" N  6° 35' 59" W  View metadata report for BODC series reference number 316668
3166811989-11-25 09:17 56° 44' 5" N  6° 45' 11" W  View metadata report for BODC series reference number 316681
3166931989-11-25 10:35 56° 43' 59" N  7° 0' 17" W  View metadata report for BODC series reference number 316693
3167001989-11-25 11:55 56° 44' 5" N  7° 10' 18" W  View metadata report for BODC series reference number 316700
3167121989-11-25 13:08 56° 43' 59" N  7° 19' 59" W  View metadata report for BODC series reference number 316712